createdAt,value
2022-10-17T00:02:19.110Z,13.99
2022-10-17T00:04:46.870Z,13.96
2022-10-17T00:07:14.609Z,13.92
2022-10-17T00:09:43.796Z,13.89
2022-10-17T00:12:11.675Z,13.83
2022-10-17T00:14:39.508Z,13.77
2022-10-17T00:17:08.631Z,13.79
2022-10-17T00:19:36.367Z,13.81
2022-10-17T00:22:04.070Z,13.77
2022-10-17T00:24:32.001Z,13.79
2022-10-17T00:26:59.709Z,13.82
2022-10-17T00:29:27.613Z,13.82
2022-10-17T00:31:56.832Z,13.77
2022-10-17T00:34:26.442Z,13.79
2022-10-17T00:36:54.145Z,13.78
2022-10-17T00:39:21.889Z,13.83
2022-10-17T00:41:49.643Z,13.83
2022-10-17T00:44:53.660Z,13.78
2022-10-17T00:47:23.975Z,13.79
2022-10-17T00:49:53.549Z,13.79
2022-10-17T00:52:24.263Z,13.80
2022-10-17T00:54:57.280Z,13.78
2022-10-17T00:57:25.781Z,13.77
2022-10-17T00:59:57.298Z,13.78
2022-10-17T01:02:25.534Z,13.77
2022-10-17T01:04:59.362Z,13.75
2022-10-17T01:07:31.907Z,13.75
2022-10-17T01:10:03.087Z,13.72
2022-10-17T01:12:42.250Z,13.75
2022-10-17T01:15:14.791Z,13.76
2022-10-17T01:17:53.155Z,13.76
2022-10-17T01:20:52.409Z,13.84
2022-10-17T01:23:38.263Z,13.87
2022-10-17T01:26:16.992Z,13.87
2022-10-17T01:29:20.398Z,13.87
2022-10-17T01:31:56.758Z,13.88
2022-10-17T01:34:33.140Z,13.91
2022-10-17T01:37:05.192Z,13.84
2022-10-17T01:39:45.445Z,13.80
2022-10-17T01:42:19.584Z,13.78
2022-10-17T01:44:52.697Z,13.74
2022-10-17T01:47:25.486Z,13.73
2022-10-17T01:49:57.824Z,13.76
2022-10-17T01:52:28.623Z,13.76
2022-10-17T01:54:59.736Z,13.72
2022-10-17T01:57:32.455Z,13.76
2022-10-17T02:00:02.177Z,13.78
2022-10-17T02:02:32.804Z,13.82
2022-10-17T02:05:03.582Z,13.81
2022-10-17T02:07:31.470Z,13.84
2022-10-17T02:10:00.521Z,13.83
2022-10-17T02:12:41.346Z,13.79
2022-10-17T02:15:34.780Z,13.78
2022-10-17T02:18:16.870Z,13.84
2022-10-17T02:20:52.755Z,13.84
2022-10-17T02:23:26.538Z,13.83
2022-10-17T02:26:03.466Z,13.88
2022-10-17T02:28:38.215Z,13.89
2022-10-17T02:31:11.300Z,13.84
2022-10-17T02:33:45.589Z,13.82
2022-10-17T02:36:17.961Z,13.86
2022-10-17T02:38:47.326Z,13.86
2022-10-17T02:41:19.364Z,13.83
2022-10-17T02:43:49.978Z,13.80
2022-10-17T02:46:21.713Z,13.77
2022-10-17T02:48:54.568Z,13.72
2022-10-17T02:51:30.418Z,13.73
2022-10-17T02:54:06.278Z,13.77
2022-10-17T02:56:41.182Z,13.78
2022-10-17T02:59:13.425Z,13.77
2022-10-17T03:01:41.674Z,13.82
2022-10-17T03:04:13.224Z,13.86
2022-10-17T03:06:43.455Z,13.93
2022-10-17T03:09:11.290Z,14.00
2022-10-17T03:11:39.073Z,14.03
2022-10-17T03:14:08.479Z,14.09
2022-10-17T03:16:36.181Z,14.14
2022-10-17T03:19:05.049Z,14.14
2022-10-17T03:21:36.442Z,14.15
2022-10-17T03:24:04.240Z,14.17
2022-10-17T03:26:32.519Z,14.18
2022-10-17T03:29:00.369Z,14.22
2022-10-17T03:31:30.221Z,14.23
2022-10-17T03:33:58.778Z,14.25
2022-10-17T03:36:26.522Z,14.28
2022-10-17T03:38:56.768Z,14.32
2022-10-17T03:41:24.689Z,14.36
2022-10-17T03:43:53.712Z,14.41
2022-10-17T03:46:22.046Z,14.45
2022-10-17T03:48:50.098Z,14.52
2022-10-17T03:51:17.842Z,14.60
2022-10-17T03:53:50.805Z,14.68
2022-10-17T03:56:21.313Z,14.73
2022-10-17T03:58:57.416Z,14.78
2022-10-17T04:01:25.487Z,14.78
2022-10-17T04:03:54.692Z,14.77
2022-10-17T04:06:23.298Z,14.75
2022-10-17T04:08:51.447Z,14.75
2022-10-17T04:11:36.121Z,14.77
2022-10-17T04:14:04.932Z,14.81
2022-10-17T04:16:33.138Z,14.82
2022-10-17T04:19:04.391Z,14.84
2022-10-17T04:21:37.899Z,14.83
2022-10-17T04:24:08.212Z,14.80
2022-10-17T04:26:46.556Z,14.77
2022-10-17T04:29:15.551Z,14.83
2022-10-17T04:31:45.334Z,14.83
2022-10-17T04:34:20.528Z,14.80
2022-10-17T04:36:48.719Z,14.78
2022-10-17T04:39:16.599Z,14.77
2022-10-17T04:41:46.385Z,14.77
2022-10-17T04:44:14.601Z,14.78
2022-10-17T04:46:47.930Z,14.77
2022-10-17T04:49:15.660Z,14.80
2022-10-17T04:51:45.373Z,14.85
2022-10-17T04:54:19.275Z,14.90
2022-10-17T04:56:52.255Z,14.94
2022-10-17T04:59:20.228Z,14.95
2022-10-17T05:01:53.348Z,14.99
2022-10-17T05:04:24.032Z,15.01
2022-10-17T05:06:53.585Z,15.06
2022-10-17T05:09:39.665Z,15.09
2022-10-17T05:12:10.398Z,15.08
2022-10-17T05:14:41.281Z,15.08
2022-10-17T05:17:09.080Z,15.06
2022-10-17T05:19:36.877Z,15.03
2022-10-17T05:22:05.120Z,15.00
2022-10-17T05:24:32.876Z,15.03
2022-10-17T05:27:00.653Z,15.05
2022-10-17T05:29:29.817Z,15.09
2022-10-17T05:32:06.029Z,15.12
2022-10-17T05:34:35.621Z,15.14
2022-10-17T05:37:03.380Z,15.20
2022-10-17T05:39:32.271Z,15.20
2022-10-17T05:42:00.932Z,15.19
2022-10-17T05:44:30.446Z,15.21
2022-10-17T05:47:00.932Z,15.24
2022-10-17T05:49:43.557Z,15.22
2022-10-17T05:52:11.898Z,15.22
2022-10-17T05:54:54.086Z,15.21
2022-10-17T05:57:25.347Z,15.17
2022-10-17T05:59:54.685Z,15.14
2022-10-17T06:02:22.769Z,15.14
2022-10-17T06:04:51.031Z,15.13
2022-10-17T06:07:21.284Z,15.10
2022-10-17T06:09:49.901Z,15.10
2022-10-17T06:12:17.796Z,15.14
2022-10-17T06:14:46.253Z,15.15
2022-10-17T06:17:16.622Z,15.20
2022-10-17T06:19:45.462Z,15.18
2022-10-17T06:22:15.730Z,15.24
2022-10-17T06:24:43.940Z,15.25
2022-10-17T06:27:13.145Z,15.27
2022-10-17T06:29:42.152Z,15.33
2022-10-17T06:32:12.749Z,15.38
2022-10-17T06:34:45.030Z,15.46
2022-10-17T06:37:12.852Z,15.51
2022-10-17T06:39:42.228Z,15.54
2022-10-17T06:42:15.960Z,15.53
2022-10-17T06:45:07.572Z,15.53
2022-10-17T06:47:55.615Z,15.52
2022-10-17T06:50:44.277Z,15.58
2022-10-17T06:53:16.315Z,15.62
2022-10-17T06:55:53.274Z,15.68
2022-10-17T06:58:43.912Z,15.70
2022-10-17T07:01:24.350Z,15.73
2022-10-17T07:03:56.181Z,15.73
2022-10-17T07:06:25.680Z,15.76
2022-10-17T07:08:56.450Z,15.77
2022-10-17T07:11:25.847Z,15.75
2022-10-17T07:13:54.192Z,15.79
2022-10-17T07:16:23.397Z,15.77
2022-10-17T07:19:03.016Z,15.79
2022-10-17T07:21:39.151Z,15.80
2022-10-17T07:24:08.593Z,15.84
2022-10-17T07:26:36.324Z,15.88
2022-10-17T07:29:06.356Z,15.91
2022-10-17T07:31:48.932Z,15.88
2022-10-17T07:34:16.820Z,15.81
2022-10-17T07:36:47.178Z,15.80
2022-10-17T07:39:16.445Z,15.80
2022-10-17T07:41:44.201Z,15.86
2022-10-17T07:44:12.565Z,15.90
2022-10-17T07:46:45.317Z,15.95
2022-10-17T07:49:13.099Z,15.96
2022-10-17T07:51:42.209Z,15.98
2022-10-17T07:54:11.481Z,15.99
2022-10-17T07:56:39.258Z,16.02
2022-10-17T07:59:09.327Z,16.05
2022-10-17T08:01:37.898Z,16.06
2022-10-17T08:04:05.941Z,16.09
2022-10-17T08:06:33.741Z,16.09
2022-10-17T08:09:02.055Z,16.08
2022-10-17T08:11:31.140Z,16.05
2022-10-17T08:13:58.876Z,16.03
2022-10-17T08:16:26.607Z,15.97
2022-10-17T08:18:54.316Z,15.98
2022-10-17T08:21:22.234Z,15.99
2022-10-17T08:23:50.011Z,16.01
2022-10-17T08:26:19.943Z,16.03
2022-10-17T08:28:49.544Z,16.03
2022-10-17T08:31:20.102Z,16.05
2022-10-17T08:33:48.820Z,16.08
2022-10-17T08:36:19.938Z,16.08
2022-10-17T08:38:52.417Z,16.13
2022-10-17T08:41:34.953Z,16.16
2022-10-17T08:44:15.905Z,16.18
2022-10-17T08:46:47.360Z,16.20
2022-10-17T08:49:20.698Z,16.22
2022-10-17T08:52:07.648Z,16.23
2022-10-17T08:54:42.886Z,16.23
2022-10-17T08:57:13.518Z,16.21
2022-10-17T08:59:43.957Z,16.20
2022-10-17T09:02:29.553Z,16.21
2022-10-17T09:05:24.027Z,16.22
2022-10-17T09:08:04.173Z,16.20
2022-10-17T09:10:43.866Z,16.22
2022-10-17T09:13:23.799Z,16.25
2022-10-17T09:16:09.028Z,16.25
2022-10-17T09:18:40.850Z,16.33
2022-10-17T09:21:20.498Z,16.36
2022-10-17T09:23:59.431Z,16.33
2022-10-17T09:26:36.886Z,16.32
2022-10-17T09:29:16.106Z,16.34
2022-10-17T09:31:48.332Z,16.30
2022-10-17T09:34:17.369Z,16.32
2022-10-17T09:36:45.167Z,16.31
2022-10-17T09:39:15.730Z,16.30
2022-10-17T09:41:47.374Z,16.29
2022-10-17T09:44:19.506Z,16.27
2022-10-17T09:47:27.398Z,16.20
2022-10-17T09:49:55.272Z,16.19
2022-10-17T09:52:31.028Z,16.23
2022-10-17T09:55:03.088Z,16.29
2022-10-17T09:57:55.321Z,16.31
2022-10-17T10:00:25.095Z,16.37
2022-10-17T10:03:10.216Z,16.43
2022-10-17T10:05:37.948Z,16.47
2022-10-17T10:08:07.662Z,16.56
2022-10-17T10:10:35.459Z,16.57
2022-10-17T10:13:06.480Z,16.60
2022-10-17T10:15:38.637Z,16.65
2022-10-17T10:21:09.202Z,16.78
2022-10-17T10:23:40.089Z,16.82
2022-10-17T10:26:22.626Z,16.83
2022-10-17T10:29:01.283Z,16.79
2022-10-17T10:31:32.410Z,16.78
2022-10-17T10:34:04.069Z,16.77
2022-10-17T10:36:45.662Z,16.76
2022-10-17T10:39:37.242Z,16.74
2022-10-17T10:42:08.667Z,16.73
2022-10-17T10:44:39.599Z,16.76
2022-10-17T10:47:21.572Z,16.82
2022-10-17T10:49:53.592Z,16.87
2022-10-17T10:52:30.792Z,16.87
2022-10-17T10:55:11.132Z,16.93
2022-10-17T10:57:41.033Z,16.96
2022-10-17T11:00:16.520Z,16.99
2022-10-17T11:02:53.793Z,17.02
2022-10-17T11:05:31.518Z,17.04
2022-10-17T11:08:10.435Z,17.11
2022-10-17T11:10:44.443Z,17.17
2022-10-17T11:13:16.828Z,17.19
2022-10-17T11:15:48.428Z,17.14
2022-10-17T11:18:25.327Z,17.16
2022-10-17T11:20:57.897Z,17.13
2022-10-17T11:23:33.810Z,17.11
2022-10-17T11:26:09.479Z,17.12
2022-10-17T11:28:37.417Z,17.07
2022-10-17T11:31:08.761Z,17.01
2022-10-17T11:33:46.952Z,17.03
2022-10-17T11:36:18.917Z,16.94
2022-10-17T11:38:50.954Z,16.91
2022-10-17T11:41:23.986Z,16.88
2022-10-17T11:43:55.637Z,16.89
2022-10-17T11:46:25.277Z,16.92
2022-10-17T11:49:06.759Z,16.93
2022-10-17T11:52:02.847Z,16.92
2022-10-17T11:54:36.570Z,16.98
2022-10-17T11:57:17.495Z,16.95
2022-10-17T12:00:08.749Z,16.92
2022-10-17T12:02:47.040Z,16.96
2022-10-17T12:05:26.106Z,17.03
2022-10-17T12:08:00.644Z,17.11
2022-10-17T12:10:38.442Z,17.13
2022-10-17T12:13:42.776Z,17.11
2022-10-17T12:16:50.835Z,17.22
2022-10-17T12:19:28.691Z,17.20
2022-10-17T12:21:59.069Z,17.20
2022-10-17T12:24:38.681Z,17.21
2022-10-17T12:27:41.509Z,17.23
2022-10-17T12:30:22.097Z,17.24
2022-10-17T12:33:07.367Z,17.28
2022-10-17T12:35:37.571Z,17.30
2022-10-17T12:38:29.232Z,17.30
2022-10-17T12:41:03.288Z,17.30
2022-10-17T12:43:53.127Z,17.31
2022-10-17T12:46:50.940Z,17.30
2022-10-17T12:49:24.100Z,17.32
2022-10-17T12:52:29.562Z,17.29
2022-10-17T12:55:15.045Z,17.21
2022-10-17T12:57:51.359Z,17.23
2022-10-17T13:00:24.894Z,17.24
2022-10-17T13:02:56.065Z,17.23
2022-10-17T13:05:29.658Z,17.22
2022-10-17T13:08:00.433Z,17.23
2022-10-17T13:10:30.925Z,17.22
2022-10-17T13:13:09.478Z,17.24
2022-10-17T13:15:38.251Z,17.34
2022-10-17T13:18:06.618Z,17.38
2022-10-17T13:20:34.461Z,17.36
2022-10-17T13:23:02.492Z,17.34
2022-10-17T13:25:30.386Z,17.32
2022-10-17T13:28:11.942Z,17.37
2022-10-17T13:30:39.740Z,17.47
2022-10-17T13:33:28.832Z,17.46
2022-10-17T13:36:00.428Z,17.50
2022-10-17T13:38:32.357Z,17.52
2022-10-17T13:41:30.002Z,17.60
2022-10-17T13:43:51.403Z,17.59
2022-10-17T13:46:37.374Z,17.61
2022-10-17T13:49:13.752Z,17.57
2022-10-17T13:51:45.567Z,17.57
2022-10-17T13:54:36.411Z,17.58
2022-10-17T13:57:06.114Z,17.60
2022-10-17T13:59:39.550Z,17.60
2022-10-17T14:02:14.481Z,17.60
2022-10-17T14:05:11.781Z,17.64
2022-10-17T14:07:58.293Z,17.66
2022-10-17T14:10:26.266Z,17.64
2022-10-17T14:12:55.617Z,17.60
2022-10-17T14:15:28.130Z,17.61
2022-10-17T14:17:58.419Z,17.58
2022-10-17T14:23:36.159Z,17.59
2022-10-17T14:26:10.356Z,17.61
2022-10-17T14:28:38.564Z,17.62
2022-10-17T14:31:21.916Z,17.64
2022-10-17T14:33:51.815Z,17.68
2022-10-17T14:36:20.435Z,17.70
2022-10-17T14:38:50.991Z,17.81
2022-10-17T14:44:21.808Z,18.07
2022-10-17T14:46:55.110Z,18.22
2022-10-17T14:49:28.740Z,18.30
2022-10-17T14:52:17.725Z,18.35
2022-10-17T14:54:47.898Z,18.34
2022-10-17T14:57:18.591Z,18.26
2022-10-17T14:59:55.395Z,18.19
2022-10-17T15:02:25.804Z,18.11
2022-10-17T15:04:54.040Z,18.02
2022-10-17T15:07:23.516Z,18.00
2022-10-17T15:09:52.919Z,18.01
2022-10-17T15:12:24.672Z,17.98
2022-10-17T15:14:53.050Z,17.95
2022-10-17T15:17:29.679Z,17.92
2022-10-17T15:19:58.889Z,17.88
2022-10-17T15:22:26.780Z,17.86
2022-10-17T15:24:54.561Z,17.87
2022-10-17T15:27:24.095Z,17.87
2022-10-17T15:29:52.983Z,17.87
2022-10-17T15:32:20.916Z,17.86
2022-10-17T15:34:49.997Z,17.84
2022-10-17T15:37:21.992Z,17.84
2022-10-17T15:39:53.469Z,17.84
2022-10-17T15:42:23.150Z,17.86
2022-10-17T15:44:50.918Z,17.84
2022-10-17T15:47:25.336Z,17.83
2022-10-17T15:49:55.040Z,17.80
2022-10-17T15:52:23.201Z,17.73
2022-10-17T15:54:51.056Z,17.66
2022-10-17T15:57:21.762Z,17.58
2022-10-17T15:59:52.101Z,17.53
2022-10-17T16:02:21.792Z,17.47
2022-10-17T16:04:51.183Z,17.41
2022-10-17T16:07:21.308Z,17.38
2022-10-17T16:09:49.092Z,17.30
2022-10-17T16:12:19.714Z,17.20
2022-10-17T16:14:47.546Z,17.14
2022-10-17T16:17:16.301Z,17.05
2022-10-17T16:19:44.772Z,16.98
2022-10-17T16:22:26.052Z,16.95
2022-10-17T16:24:58.537Z,16.93
2022-10-17T16:27:26.480Z,16.88
2022-10-17T16:29:54.281Z,16.84
2022-10-17T16:32:22.016Z,16.80
2022-10-17T16:34:49.794Z,16.76
2022-10-17T16:37:17.952Z,16.67
2022-10-17T16:39:49.185Z,16.61
2022-10-17T16:42:17.051Z,16.57
2022-10-17T16:44:44.957Z,16.49
2022-10-17T16:47:12.689Z,16.48
2022-10-17T16:49:43.025Z,16.45
2022-10-17T16:52:13.552Z,16.43
2022-10-17T16:54:41.452Z,16.43
2022-10-17T16:57:10.592Z,16.39
2022-10-17T16:59:38.376Z,16.32
2022-10-17T17:02:06.522Z,16.23
2022-10-17T17:04:34.494Z,16.21
2022-10-17T17:07:02.292Z,16.14
2022-10-17T17:09:30.176Z,16.10
2022-10-17T17:11:57.942Z,16.10
2022-10-17T17:14:27.474Z,16.09
2022-10-17T17:16:55.204Z,16.06
2022-10-17T17:19:22.913Z,16.02
2022-10-17T17:21:51.135Z,16.01
2022-10-17T17:24:20.998Z,15.98
2022-10-17T17:26:52.210Z,15.95
2022-10-17T17:29:20.498Z,15.92
2022-10-17T17:31:49.692Z,15.90
2022-10-17T17:34:18.370Z,15.90
2022-10-17T17:36:46.476Z,15.90
2022-10-17T17:39:16.383Z,15.88
2022-10-17T17:41:45.585Z,15.88
2022-10-17T17:44:16.720Z,15.86
2022-10-17T17:46:45.324Z,15.83
2022-10-17T17:49:14.847Z,15.81
2022-10-17T17:51:46.181Z,15.81
2022-10-17T17:54:14.153Z,15.80
2022-10-17T17:56:41.999Z,15.81
2022-10-17T17:59:13.336Z,15.80
2022-10-17T18:01:41.156Z,15.80
2022-10-17T18:04:10.092Z,15.78
2022-10-17T18:06:40.296Z,15.73
2022-10-17T18:09:09.173Z,15.68
2022-10-17T18:11:37.765Z,15.69
2022-10-17T18:14:07.432Z,15.67
2022-10-17T18:16:37.528Z,15.66
2022-10-17T18:19:07.261Z,15.67
2022-10-17T18:21:35.627Z,15.67
2022-10-17T18:24:05.683Z,15.65
2022-10-17T18:26:34.463Z,15.61
2022-10-17T18:29:02.373Z,15.61
2022-10-17T18:31:35.342Z,15.57
2022-10-17T18:34:04.018Z,15.57
2022-10-17T18:36:33.146Z,15.57
2022-10-17T18:39:02.380Z,15.58
2022-10-17T18:41:32.716Z,15.59
2022-10-17T18:44:00.498Z,15.61
2022-10-17T18:46:30.355Z,15.60
2022-10-17T18:48:58.751Z,15.59
2022-10-17T18:51:27.469Z,15.59
2022-10-17T18:53:56.526Z,15.57
2022-10-17T18:56:24.498Z,15.55
2022-10-17T18:58:53.575Z,15.54
2022-10-17T19:01:23.593Z,15.55
2022-10-17T19:03:53.053Z,15.51
2022-10-17T19:06:23.401Z,15.47
2022-10-17T19:08:51.482Z,15.45
2022-10-17T19:11:21.694Z,15.46
2022-10-17T19:13:50.090Z,15.47
2022-10-17T19:16:21.257Z,15.49
2022-10-17T19:18:50.726Z,15.49
2022-10-17T19:21:21.878Z,15.45
2022-10-17T19:23:52.355Z,15.47
2022-10-17T19:26:21.284Z,15.46
2022-10-17T19:28:52.218Z,15.46
2022-10-17T19:31:26.424Z,15.47
2022-10-17T19:33:54.893Z,15.42
2022-10-17T19:36:27.522Z,15.43
2022-10-17T19:39:04.654Z,15.44
2022-10-17T19:41:33.308Z,15.40
2022-10-17T19:44:01.634Z,15.38
2022-10-17T19:46:33.803Z,15.37
2022-10-17T19:49:02.217Z,15.34
2022-10-17T19:51:30.444Z,15.26
2022-10-17T19:54:00.265Z,15.26
2022-10-17T19:56:31.204Z,15.24
2022-10-17T19:58:59.710Z,15.24
2022-10-17T20:01:30.776Z,15.20
2022-10-17T20:03:58.597Z,15.15
2022-10-17T20:06:26.990Z,15.16
2022-10-17T20:08:54.860Z,15.16
2022-10-17T20:11:27.186Z,15.19
2022-10-17T20:13:56.664Z,15.13
2022-10-17T20:16:26.448Z,15.05
2022-10-17T20:18:57.820Z,15.07
2022-10-17T20:21:28.212Z,15.07
2022-10-17T20:23:56.333Z,15.09
2022-10-17T20:26:37.128Z,15.13
2022-10-17T20:29:10.827Z,15.14
2022-10-17T20:31:38.969Z,15.12
2022-10-17T20:34:08.051Z,15.07
2022-10-17T20:36:37.438Z,15.06
2022-10-17T20:39:07.218Z,15.03
2022-10-17T20:41:35.294Z,15.05
2022-10-17T20:44:03.277Z,15.06
2022-10-17T20:46:44.356Z,15.06
2022-10-17T20:49:15.862Z,14.92
2022-10-17T20:51:43.829Z,14.94
2022-10-17T20:54:12.662Z,14.90
2022-10-17T20:56:40.618Z,14.92
2022-10-17T20:59:13.525Z,14.93
2022-10-17T21:01:41.618Z,14.93
2022-10-17T21:04:44.028Z,14.94
2022-10-17T21:06:59.277Z,14.98
2022-10-17T21:09:27.032Z,14.99
2022-10-17T21:11:55.976Z,15.03
2022-10-17T21:14:25.055Z,15.05
2022-10-17T21:16:53.468Z,15.05
2022-10-17T21:19:22.568Z,15.03
2022-10-17T21:21:50.702Z,15.01
2022-10-17T21:24:20.812Z,15.03
2022-10-17T21:26:55.254Z,15.02
2022-10-17T21:29:24.010Z,14.99
2022-10-17T21:31:52.354Z,14.98
2022-10-17T21:34:22.097Z,14.94
2022-10-17T21:36:50.182Z,14.93
2022-10-17T21:39:19.290Z,14.87
2022-10-17T21:41:47.049Z,14.85
2022-10-17T21:44:16.395Z,14.82
2022-10-17T21:46:44.711Z,14.84
2022-10-17T21:49:13.849Z,14.83
2022-10-17T21:51:42.084Z,14.87
2022-10-17T21:54:09.927Z,14.81
2022-10-17T21:56:39.045Z,14.73
2022-10-17T21:59:07.144Z,14.70
2022-10-17T22:01:37.036Z,14.67
2022-10-17T22:04:06.775Z,14.66
2022-10-17T22:06:40.852Z,14.69
2022-10-17T22:09:12.329Z,14.70
2022-10-17T22:11:42.122Z,14.68
2022-10-17T22:14:13.235Z,14.69
2022-10-17T22:16:42.056Z,14.63
2022-10-17T22:19:11.557Z,14.63
2022-10-17T22:21:39.630Z,14.62
2022-10-17T22:24:09.680Z,14.63
2022-10-17T22:26:38.589Z,14.66
2022-10-17T22:29:09.153Z,14.67
2022-10-17T22:31:37.806Z,14.69
2022-10-17T22:34:06.207Z,14.69
2022-10-17T22:36:34.552Z,14.60
2022-10-17T22:39:02.452Z,14.51
2022-10-17T22:41:30.327Z,14.48
2022-10-17T22:43:58.056Z,14.42
2022-10-17T22:46:27.228Z,14.43
2022-10-17T22:48:54.969Z,14.42
2022-10-17T22:53:55.940Z,14.47
2022-10-17T22:56:24.036Z,14.49
2022-10-17T22:58:52.292Z,14.51
2022-10-17T23:01:21.717Z,14.47
2022-10-17T23:03:51.389Z,14.42
2022-10-17T23:06:19.531Z,14.38
2022-10-17T23:08:47.357Z,14.36
2022-10-17T23:11:15.094Z,14.38
2022-10-17T23:13:42.833Z,14.35
2022-10-17T23:16:10.878Z,14.29
2022-10-17T23:18:39.346Z,14.25
2022-10-17T23:21:09.071Z,14.26
2022-10-17T23:23:37.337Z,14.24
2022-10-17T23:26:06.458Z,14.20
2022-10-17T23:28:35.572Z,14.19
2022-10-17T23:31:11.093Z,14.25
2022-10-17T23:33:41.167Z,14.27
2022-10-17T23:36:11.325Z,14.29
2022-10-17T23:38:39.206Z,14.30
2022-10-17T23:41:07.513Z,14.29
2022-10-17T23:43:35.760Z,14.27
2022-10-17T23:46:03.934Z,14.24
2022-10-17T23:48:32.120Z,14.27
2022-10-17T23:50:59.877Z,14.29
2022-10-17T23:53:28.951Z,14.19
2022-10-17T23:55:56.700Z,14.09
2022-10-17T23:58:24.553Z,14.01
